sensor_id;sensor_type;location;lat;lon;timestamp;P1;durP1;ratioP1;P2;durP2;ratioP2
19278;SDS011;9773;47.062;15.446;2022-09-17T00:00:22;3.20;;;3.10;;
19278;SDS011;9773;47.062;15.446;2022-09-17T00:02:49;3.73;;;3.43;;
19278;SDS011;9773;47.062;15.446;2022-09-17T00:05:20;3.50;;;3.37;;
19278;SDS011;9773;47.062;15.446;2022-09-17T00:07:47;3.17;;;3.00;;
19278;SDS011;9773;47.062;15.446;2022-09-17T00:10:14;3.57;;;3.37;;
19278;SDS011;9773;47.062;15.446;2022-09-17T00:12:40;4.30;;;3.90;;
19278;SDS011;9773;47.062;15.446;2022-09-17T00:15:06;4.30;;;4.00;;
19278;SDS011;9773;47.062;15.446;2022-09-17T00:17:32;4.13;;;3.93;;
19278;SDS011;9773;47.062;15.446;2022-09-17T00:19:58;4.30;;;3.97;;
19278;SDS011;9773;47.062;15.446;2022-09-17T00:22:23;4.33;;;4.10;;
19278;SDS011;9773;47.062;15.446;2022-09-17T00:24:49;3.50;;;3.30;;
19278;SDS011;9773;47.062;15.446;2022-09-17T00:27:15;4.30;;;3.63;;
19278;SDS011;9773;47.062;15.446;2022-09-17T00:29:41;3.73;;;3.53;;
19278;SDS011;9773;47.062;15.446;2022-09-17T00:32:07;3.37;;;3.17;;
19278;SDS011;9773;47.062;15.446;2022-09-17T00:34:33;3.53;;;3.43;;
19278;SDS011;9773;47.062;15.446;2022-09-17T00:36:59;3.37;;;3.27;;
19278;SDS011;9773;47.062;15.446;2022-09-17T00:39:25;3.77;;;3.47;;
19278;SDS011;9773;47.062;15.446;2022-09-17T00:41:51;3.00;;;2.90;;
19278;SDS011;9773;47.062;15.446;2022-09-17T00:47:07;3.50;;;3.30;;
19278;SDS011;9773;47.062;15.446;2022-09-17T00:49:37;3.70;;;3.43;;
19278;SDS011;9773;47.062;15.446;2022-09-17T00:52:04;3.37;;;3.20;;
19278;SDS011;9773;47.062;15.446;2022-09-17T00:54:37;3.27;;;3.07;;
19278;SDS011;9773;47.062;15.446;2022-09-17T00:57:05;3.20;;;3.10;;
19278;SDS011;9773;47.062;15.446;2022-09-17T00:59:31;3.63;;;3.33;;
19278;SDS011;9773;47.062;15.446;2022-09-17T01:01:57;3.13;;;3.00;;
19278;SDS011;9773;47.062;15.446;2022-09-17T01:04:24;3.33;;;3.13;;
19278;SDS011;9773;47.062;15.446;2022-09-17T01:14:57;5.00;;;2.77;;
19278;SDS011;9773;47.062;15.446;2022-09-17T01:18:14;3.20;;;3.10;;
19278;SDS011;9773;47.062;15.446;2022-09-17T01:26:46;2.80;;;2.70;;
19278;SDS011;9773;47.062;15.446;2022-09-17T01:32:50;2.60;;;2.50;;
19278;SDS011;9773;47.062;15.446;2022-09-17T01:35:27;3.03;;;2.87;;
19278;SDS011;9773;47.062;15.446;2022-09-17T01:40:57;3.23;;;3.03;;
19278;SDS011;9773;47.062;15.446;2022-09-17T01:43:41;3.50;;;3.30;;
19278;SDS011;9773;47.062;15.446;2022-09-17T01:48:43;4.10;;;3.80;;
19278;SDS011;9773;47.062;15.446;2022-09-17T01:51:21;3.90;;;3.13;;
19278;SDS011;9773;47.062;15.446;2022-09-17T01:53:57;4.00;;;3.67;;
19278;SDS011;9773;47.062;15.446;2022-09-17T01:56:35;4.37;;;3.20;;
19278;SDS011;9773;47.062;15.446;2022-09-17T01:59:32;3.33;;;3.13;;
19278;SDS011;9773;47.062;15.446;2022-09-17T02:02:07;4.13;;;3.93;;
19278;SDS011;9773;47.062;15.446;2022-09-17T02:04:55;3.83;;;3.60;;
19278;SDS011;9773;47.062;15.446;2022-09-17T02:07:24;3.83;;;3.63;;
19278;SDS011;9773;47.062;15.446;2022-09-17T02:09:56;3.73;;;3.43;;
19278;SDS011;9773;47.062;15.446;2022-09-17T02:12:32;3.43;;;3.30;;
19278;SDS011;9773;47.062;15.446;2022-09-17T02:15:02;3.70;;;3.50;;
19278;SDS011;9773;47.062;15.446;2022-09-17T02:17:40;3.70;;;3.50;;
19278;SDS011;9773;47.062;15.446;2022-09-17T02:20:13;4.10;;;3.80;;
19278;SDS011;9773;47.062;15.446;2022-09-17T02:22:47;4.00;;;3.80;;
19278;SDS011;9773;47.062;15.446;2022-09-17T02:25:23;4.43;;;4.17;;
19278;SDS011;9773;47.062;15.446;2022-09-17T02:28:02;3.70;;;3.40;;
19278;SDS011;9773;47.062;15.446;2022-09-17T02:30:38;4.10;;;3.90;;
19278;SDS011;9773;47.062;15.446;2022-09-17T02:33:04;3.93;;;3.63;;
19278;SDS011;9773;47.062;15.446;2022-09-17T02:35:32;4.00;;;3.80;;
19278;SDS011;9773;47.062;15.446;2022-09-17T02:37:59;3.97;;;3.77;;
19278;SDS011;9773;47.062;15.446;2022-09-17T02:40:26;4.50;;;4.10;;
19278;SDS011;9773;47.062;15.446;2022-09-17T02:57:16;3.97;;;3.67;;
19278;SDS011;9773;47.062;15.446;2022-09-17T03:00:13;3.70;;;3.50;;
19278;SDS011;9773;47.062;15.446;2022-09-17T03:02:46;4.30;;;4.00;;
19278;SDS011;9773;47.062;15.446;2022-09-17T03:05:36;4.60;;;4.03;;
19278;SDS011;9773;47.062;15.446;2022-09-17T03:08:06;4.80;;;4.50;;
19278;SDS011;9773;47.062;15.446;2022-09-17T03:10:34;4.40;;;4.10;;
19278;SDS011;9773;47.062;15.446;2022-09-17T03:12:59;4.10;;;3.90;;
19278;SDS011;9773;47.062;15.446;2022-09-17T03:15:25;4.10;;;3.90;;
19278;SDS011;9773;47.062;15.446;2022-09-17T03:17:52;4.37;;;4.17;;
19278;SDS011;9773;47.062;15.446;2022-09-17T03:20:18;4.40;;;4.10;;
19278;SDS011;9773;47.062;15.446;2022-09-17T03:22:43;4.20;;;3.90;;
19278;SDS011;9773;47.062;15.446;2022-09-17T03:25:09;4.57;;;4.27;;
19278;SDS011;9773;47.062;15.446;2022-09-17T03:27:36;4.40;;;4.20;;
19278;SDS011;9773;47.062;15.446;2022-09-17T03:30:01;5.47;;;4.10;;
19278;SDS011;9773;47.062;15.446;2022-09-17T03:32:28;4.20;;;4.00;;
19278;SDS011;9773;47.062;15.446;2022-09-17T03:34:53;4.03;;;3.83;;
19278;SDS011;9773;47.062;15.446;2022-09-17T03:37:19;4.90;;;4.60;;
19278;SDS011;9773;47.062;15.446;2022-09-17T03:39:46;5.00;;;4.60;;
19278;SDS011;9773;47.062;15.446;2022-09-17T03:42:11;4.77;;;4.47;;
19278;SDS011;9773;47.062;15.446;2022-09-17T03:44:37;4.70;;;4.30;;
19278;SDS011;9773;47.062;15.446;2022-09-17T03:47:03;4.33;;;4.03;;
19278;SDS011;9773;47.062;15.446;2022-09-17T03:49:29;4.23;;;4.03;;
19278;SDS011;9773;47.062;15.446;2022-09-17T03:51:55;4.60;;;4.37;;
19278;SDS011;9773;47.062;15.446;2022-09-17T03:54:21;4.80;;;4.50;;
19278;SDS011;9773;47.062;15.446;2022-09-17T03:56:47;4.47;;;4.27;;
19278;SDS011;9773;47.062;15.446;2022-09-17T03:59:12;4.40;;;4.20;;
19278;SDS011;9773;47.062;15.446;2022-09-17T04:01:38;3.93;;;3.63;;
19278;SDS011;9773;47.062;15.446;2022-09-17T04:04:04;4.17;;;3.77;;
19278;SDS011;9773;47.062;15.446;2022-09-17T04:06:30;4.00;;;3.80;;
19278;SDS011;9773;47.062;15.446;2022-09-17T04:08:56;4.27;;;3.97;;
19278;SDS011;9773;47.062;15.446;2022-09-17T04:11:22;5.00;;;4.53;;
19278;SDS011;9773;47.062;15.446;2022-09-17T04:13:48;4.60;;;4.40;;
19278;SDS011;9773;47.062;15.446;2022-09-17T04:16:13;4.37;;;4.17;;
19278;SDS011;9773;47.062;15.446;2022-09-17T04:18:40;4.43;;;3.80;;
19278;SDS011;9773;47.062;15.446;2022-09-17T04:21:05;4.00;;;3.70;;
19278;SDS011;9773;47.062;15.446;2022-09-17T04:23:31;3.87;;;3.60;;
19278;SDS011;9773;47.062;15.446;2022-09-17T04:25:57;4.07;;;3.80;;
19278;SDS011;9773;47.062;15.446;2022-09-17T04:28:23;5.57;;;3.90;;
19278;SDS011;9773;47.062;15.446;2022-09-17T04:30:48;3.40;;;3.30;;
19278;SDS011;9773;47.062;15.446;2022-09-17T04:33:14;3.50;;;3.30;;
19278;SDS011;9773;47.062;15.446;2022-09-17T04:35:40;3.67;;;3.47;;
19278;SDS011;9773;47.062;15.446;2022-09-17T04:38:06;3.77;;;3.57;;
19278;SDS011;9773;47.062;15.446;2022-09-17T04:40:33;4.30;;;4.00;;
19278;SDS011;9773;47.062;15.446;2022-09-17T04:42:59;3.13;;;3.03;;
19278;SDS011;9773;47.062;15.446;2022-09-17T04:45:27;4.77;;;3.77;;
19278;SDS011;9773;47.062;15.446;2022-09-17T04:47:53;4.20;;;3.80;;
19278;SDS011;9773;47.062;15.446;2022-09-17T04:50:19;3.57;;;3.37;;
19278;SDS011;9773;47.062;15.446;2022-09-17T04:52:46;4.20;;;3.90;;
19278;SDS011;9773;47.062;15.446;2022-09-17T04:55:13;4.33;;;3.83;;
19278;SDS011;9773;47.062;15.446;2022-09-17T04:57:44;3.73;;;3.43;;
19278;SDS011;9773;47.062;15.446;2022-09-17T05:00:12;4.40;;;3.70;;
19278;SDS011;9773;47.062;15.446;2022-09-17T05:02:39;4.37;;;3.80;;
19278;SDS011;9773;47.062;15.446;2022-09-17T05:05:07;3.73;;;3.43;;
19278;SDS011;9773;47.062;15.446;2022-09-17T05:07:33;3.67;;;3.47;;
19278;SDS011;9773;47.062;15.446;2022-09-17T05:09:58;6.20;;;3.80;;
19278;SDS011;9773;47.062;15.446;2022-09-17T05:12:24;3.63;;;3.33;;
19278;SDS011;9773;47.062;15.446;2022-09-17T05:14:50;4.47;;;3.67;;
19278;SDS011;9773;47.062;15.446;2022-09-17T05:17:16;4.00;;;3.67;;
19278;SDS011;9773;47.062;15.446;2022-09-17T05:19:41;3.90;;;3.70;;
19278;SDS011;9773;47.062;15.446;2022-09-17T05:22:07;4.20;;;3.90;;
19278;SDS011;9773;47.062;15.446;2022-09-17T05:24:33;4.83;;;3.73;;
19278;SDS011;9773;47.062;15.446;2022-09-17T05:27:03;4.63;;;3.30;;
19278;SDS011;9773;47.062;15.446;2022-09-17T05:29:30;12.30;;;5.53;;
19278;SDS011;9773;47.062;15.446;2022-09-17T05:31:56;11.67;;;4.63;;
19278;SDS011;9773;47.062;15.446;2022-09-17T05:34:22;3.70;;;3.40;;
19278;SDS011;9773;47.062;15.446;2022-09-17T05:36:48;3.57;;;3.27;;
19278;SDS011;9773;47.062;15.446;2022-09-17T05:39:14;3.70;;;3.40;;
19278;SDS011;9773;47.062;15.446;2022-09-17T05:41:40;3.70;;;3.50;;
19278;SDS011;9773;47.062;15.446;2022-09-17T05:44:05;3.40;;;3.23;;
19278;SDS011;9773;47.062;15.446;2022-09-17T05:46:31;3.50;;;3.20;;
19278;SDS011;9773;47.062;15.446;2022-09-17T05:48:57;3.40;;;3.20;;
19278;SDS011;9773;47.062;15.446;2022-09-17T05:51:23;3.57;;;3.33;;
19278;SDS011;9773;47.062;15.446;2022-09-17T05:53:49;3.00;;;2.80;;
19278;SDS011;9773;47.062;15.446;2022-09-17T05:56:15;3.90;;;3.60;;
19278;SDS011;9773;47.062;15.446;2022-09-17T05:58:40;4.97;;;3.20;;
19278;SDS011;9773;47.062;15.446;2022-09-17T06:01:06;4.23;;;3.60;;
19278;SDS011;9773;47.062;15.446;2022-09-17T06:03:32;3.50;;;3.30;;
19278;SDS011;9773;47.062;15.446;2022-09-17T06:05:58;4.10;;;3.53;;
19278;SDS011;9773;47.062;15.446;2022-09-17T06:08:25;4.87;;;3.20;;
19278;SDS011;9773;47.062;15.446;2022-09-17T06:10:53;3.90;;;3.60;;
19278;SDS011;9773;47.062;15.446;2022-09-17T06:13:19;3.67;;;3.47;;
19278;SDS011;9773;47.062;15.446;2022-09-17T06:15:49;3.47;;;3.27;;
19278;SDS011;9773;47.062;15.446;2022-09-17T06:18:16;4.23;;;3.93;;
19278;SDS011;9773;47.062;15.446;2022-09-17T06:20:41;4.03;;;3.67;;
19278;SDS011;9773;47.062;15.446;2022-09-17T06:23:07;4.53;;;4.23;;
19278;SDS011;9773;47.062;15.446;2022-09-17T06:25:33;4.13;;;3.93;;
19278;SDS011;9773;47.062;15.446;2022-09-17T06:28:00;4.47;;;4.10;;
19278;SDS011;9773;47.062;15.446;2022-09-17T06:30:27;4.30;;;3.93;;
19278;SDS011;9773;47.062;15.446;2022-09-17T06:32:52;4.57;;;4.27;;
19278;SDS011;9773;47.062;15.446;2022-09-17T06:35:18;4.33;;;3.93;;
19278;SDS011;9773;47.062;15.446;2022-09-17T06:37:44;4.63;;;4.27;;
19278;SDS011;9773;47.062;15.446;2022-09-17T06:40:10;3.80;;;3.50;;
19278;SDS011;9773;47.062;15.446;2022-09-17T06:42:35;4.50;;;4.10;;
19278;SDS011;9773;47.062;15.446;2022-09-17T06:45:02;4.27;;;3.87;;
19278;SDS011;9773;47.062;15.446;2022-09-17T06:47:28;4.17;;;3.90;;
19278;SDS011;9773;47.062;15.446;2022-09-17T06:49:54;4.50;;;4.10;;
19278;SDS011;9773;47.062;15.446;2022-09-17T06:52:21;4.90;;;4.50;;
19278;SDS011;9773;47.062;15.446;2022-09-17T06:54:47;4.27;;;3.97;;
19278;SDS011;9773;47.062;15.446;2022-09-17T06:57:12;4.83;;;4.03;;
19278;SDS011;9773;47.062;15.446;2022-09-17T06:59:38;4.10;;;3.90;;
19278;SDS011;9773;47.062;15.446;2022-09-17T07:02:04;4.47;;;4.17;;
19278;SDS011;9773;47.062;15.446;2022-09-17T07:04:30;5.77;;;5.27;;
19278;SDS011;9773;47.062;15.446;2022-09-17T07:06:56;4.70;;;4.20;;
19278;SDS011;9773;47.062;15.446;2022-09-17T07:09:22;5.20;;;4.80;;
19278;SDS011;9773;47.062;15.446;2022-09-17T07:11:47;7.57;;;5.03;;
19278;SDS011;9773;47.062;15.446;2022-09-17T07:14:13;5.33;;;4.83;;
19278;SDS011;9773;47.062;15.446;2022-09-17T07:16:39;5.30;;;4.33;;
19278;SDS011;9773;47.062;15.446;2022-09-17T07:19:04;6.47;;;5.13;;
19278;SDS011;9773;47.062;15.446;2022-09-17T07:21:31;5.50;;;5.00;;
19278;SDS011;9773;47.062;15.446;2022-09-17T07:23:56;6.30;;;4.80;;
19278;SDS011;9773;47.062;15.446;2022-09-17T07:26:23;5.50;;;5.10;;
19278;SDS011;9773;47.062;15.446;2022-09-17T07:28:49;8.23;;;5.27;;
19278;SDS011;9773;47.062;15.446;2022-09-17T07:31:15;5.73;;;5.33;;
19278;SDS011;9773;47.062;15.446;2022-09-17T07:33:40;5.70;;;5.20;;
19278;SDS011;9773;47.062;15.446;2022-09-17T07:36:07;6.13;;;5.60;;
19278;SDS011;9773;47.062;15.446;2022-09-17T07:38:35;6.87;;;5.23;;
19278;SDS011;9773;47.062;15.446;2022-09-17T07:41:05;5.90;;;5.37;;
19278;SDS011;9773;47.062;15.446;2022-09-17T07:43:37;5.73;;;5.30;;
19278;SDS011;9773;47.062;15.446;2022-09-17T07:46:04;5.40;;;5.00;;
19278;SDS011;9773;47.062;15.446;2022-09-17T07:48:31;11.30;;;5.07;;
19278;SDS011;9773;47.062;15.446;2022-09-17T07:50:57;5.57;;;5.07;;
19278;SDS011;9773;47.062;15.446;2022-09-17T07:53:23;5.47;;;5.07;;
19278;SDS011;9773;47.062;15.446;2022-09-17T07:55:55;8.90;;;5.67;;
19278;SDS011;9773;47.062;15.446;2022-09-17T07:58:23;5.70;;;5.33;;
19278;SDS011;9773;47.062;15.446;2022-09-17T08:00:58;5.60;;;5.20;;
19278;SDS011;9773;47.062;15.446;2022-09-17T08:03:27;6.87;;;5.73;;
19278;SDS011;9773;47.062;15.446;2022-09-17T08:05:53;5.83;;;5.33;;
19278;SDS011;9773;47.062;15.446;2022-09-17T08:08:30;4.90;;;4.47;;
19278;SDS011;9773;47.062;15.446;2022-09-17T08:11:03;5.27;;;4.83;;
19278;SDS011;9773;47.062;15.446;2022-09-17T08:13:31;5.60;;;5.17;;
19278;SDS011;9773;47.062;15.446;2022-09-17T08:15:58;5.93;;;5.33;;
19278;SDS011;9773;47.062;15.446;2022-09-17T08:18:25;5.27;;;4.97;;
19278;SDS011;9773;47.062;15.446;2022-09-17T08:20:54;5.20;;;4.83;;
19278;SDS011;9773;47.062;15.446;2022-09-17T08:23:21;5.87;;;5.13;;
19278;SDS011;9773;47.062;15.446;2022-09-17T08:25:53;6.10;;;5.40;;
19278;SDS011;9773;47.062;15.446;2022-09-17T08:28:21;5.93;;;5.53;;
19278;SDS011;9773;47.062;15.446;2022-09-17T08:30:49;5.67;;;5.17;;
19278;SDS011;9773;47.062;15.446;2022-09-17T08:33:16;6.00;;;4.90;;
19278;SDS011;9773;47.062;15.446;2022-09-17T08:35:42;5.03;;;4.63;;
19278;SDS011;9773;47.062;15.446;2022-09-17T08:38:15;6.10;;;5.60;;
19278;SDS011;9773;47.062;15.446;2022-09-17T08:40:49;6.63;;;5.70;;
19278;SDS011;9773;47.062;15.446;2022-09-17T08:43:28;5.77;;;5.23;;
19278;SDS011;9773;47.062;15.446;2022-09-17T08:45:55;5.60;;;5.30;;
19278;SDS011;9773;47.062;15.446;2022-09-17T08:48:24;5.43;;;5.10;;
19278;SDS011;9773;47.062;15.446;2022-09-17T08:50:52;5.17;;;4.67;;
19278;SDS011;9773;47.062;15.446;2022-09-17T08:56:12;5.80;;;5.10;;
19278;SDS011;9773;47.062;15.446;2022-09-17T09:01:26;5.77;;;5.37;;
19278;SDS011;9773;47.062;15.446;2022-09-17T09:07:03;6.10;;;5.70;;
19278;SDS011;9773;47.062;15.446;2022-09-17T09:09:39;6.97;;;6.40;;
19278;SDS011;9773;47.062;15.446;2022-09-17T09:12:11;6.57;;;6.07;;
19278;SDS011;9773;47.062;15.446;2022-09-17T09:14:47;6.73;;;6.23;;
19278;SDS011;9773;47.062;15.446;2022-09-17T09:17:17;6.73;;;6.03;;
19278;SDS011;9773;47.062;15.446;2022-09-17T09:19:47;6.10;;;5.70;;
19278;SDS011;9773;47.062;15.446;2022-09-17T09:27:31;5.57;;;5.17;;
19278;SDS011;9773;47.062;15.446;2022-09-17T09:30:07;5.63;;;5.00;;
19278;SDS011;9773;47.062;15.446;2022-09-17T09:35:16;4.77;;;4.47;;
19278;SDS011;9773;47.062;15.446;2022-09-17T09:38:05;4.57;;;4.13;;
19278;SDS011;9773;47.062;15.446;2022-09-17T09:40:47;4.40;;;4.17;;
19278;SDS011;9773;47.062;15.446;2022-09-17T09:44:22;4.20;;;4.00;;
19278;SDS011;9773;47.062;15.446;2022-09-17T09:56:54;5.00;;;4.60;;
19278;SDS011;9773;47.062;15.446;2022-09-17T09:59:22;7.33;;;4.30;;
19278;SDS011;9773;47.062;15.446;2022-09-17T10:01:50;5.70;;;3.53;;
19278;SDS011;9773;47.062;15.446;2022-09-17T10:04:26;3.40;;;3.10;;
19278;SDS011;9773;47.062;15.446;2022-09-17T10:07:03;4.47;;;3.10;;
19278;SDS011;9773;47.062;15.446;2022-09-17T10:09:31;3.37;;;3.17;;
19278;SDS011;9773;47.062;15.446;2022-09-17T10:14:27;86.03;;;11.43;;
19278;SDS011;9773;47.062;15.446;2022-09-17T10:19:41;8.20;;;2.50;;
19278;SDS011;9773;47.062;15.446;2022-09-17T10:22:28;2.07;;;1.83;;
19278;SDS011;9773;47.062;15.446;2022-09-17T10:24:56;2.50;;;2.27;;
19278;SDS011;9773;47.062;15.446;2022-09-17T10:27:24;4.73;;;3.20;;
19278;SDS011;9773;47.062;15.446;2022-09-17T10:29:54;1.90;;;1.80;;
19278;SDS011;9773;47.062;15.446;2022-09-17T10:32:32;1.93;;;1.83;;
19278;SDS011;9773;47.062;15.446;2022-09-17T10:34:59;2.20;;;1.80;;
19278;SDS011;9773;47.062;15.446;2022-09-17T10:40:34;2.30;;;1.70;;
19278;SDS011;9773;47.062;15.446;2022-09-17T10:45:39;4.03;;;1.17;;
19278;SDS011;9773;47.062;15.446;2022-09-17T10:48:20;2.10;;;1.10;;
19278;SDS011;9773;47.062;15.446;2022-09-17T10:50:48;3.87;;;1.40;;
19278;SDS011;9773;47.062;15.446;2022-09-17T10:53:16;2.73;;;1.90;;
19278;SDS011;9773;47.062;15.446;2022-09-17T10:55:45;15.93;;;2.63;;
19278;SDS011;9773;47.062;15.446;2022-09-17T10:58:21;4.83;;;1.87;;
19278;SDS011;9773;47.062;15.446;2022-09-17T11:09:46;3.37;;;1.50;;
19278;SDS011;9773;47.062;15.446;2022-09-17T11:18:02;1.47;;;1.40;;
19278;SDS011;9773;47.062;15.446;2022-09-17T11:21:03;2.03;;;1.93;;
19278;SDS011;9773;47.062;15.446;2022-09-17T11:39:46;3.50;;;1.30;;
19278;SDS011;9773;47.062;15.446;2022-09-17T11:42:23;4.50;;;1.57;;
19278;SDS011;9773;47.062;15.446;2022-09-17T11:45:05;13.43;;;2.70;;
19278;SDS011;9773;47.062;15.446;2022-09-17T11:47:36;19.63;;;2.50;;
19278;SDS011;9773;47.062;15.446;2022-09-17T11:50:16;1.87;;;1.77;;
19278;SDS011;9773;47.062;15.446;2022-09-17T11:53:03;1.57;;;1.47;;
19278;SDS011;9773;47.062;15.446;2022-09-17T11:55:32;3.70;;;1.40;;
19278;SDS011;9773;47.062;15.446;2022-09-17T12:00:51;1.50;;;1.40;;
19278;SDS011;9773;47.062;15.446;2022-09-17T12:03:41;1.13;;;1.00;;
19278;SDS011;9773;47.062;15.446;2022-09-17T12:06:15;1.33;;;1.20;;
19278;SDS011;9773;47.062;15.446;2022-09-17T12:08:51;0.93;;;0.93;;
19278;SDS011;9773;47.062;15.446;2022-09-17T12:11:41;1.20;;;1.20;;
19278;SDS011;9773;47.062;15.446;2022-09-17T12:14:25;1.10;;;1.10;;
19278;SDS011;9773;47.062;15.446;2022-09-17T12:17:14;1.20;;;1.20;;
19278;SDS011;9773;47.062;15.446;2022-09-17T12:19:47;1.23;;;1.20;;
19278;SDS011;9773;47.062;15.446;2022-09-17T12:25:03;0.73;;;0.73;;
19278;SDS011;9773;47.062;15.446;2022-09-17T12:27:38;0.80;;;0.80;;
19278;SDS011;9773;47.062;15.446;2022-09-17T12:30:20;1.23;;;0.93;;
19278;SDS011;9773;47.062;15.446;2022-09-17T12:37:59;1.30;;;1.20;;
19278;SDS011;9773;47.062;15.446;2022-09-17T12:40:34;1.33;;;1.00;;
19278;SDS011;9773;47.062;15.446;2022-09-17T12:52:26;1.00;;;1.00;;
19278;SDS011;9773;47.062;15.446;2022-09-17T12:55:00;1.53;;;1.10;;
19278;SDS011;9773;47.062;15.446;2022-09-17T12:58:10;1.10;;;1.00;;
19278;SDS011;9773;47.062;15.446;2022-09-17T13:00:56;2.20;;;1.10;;
19278;SDS011;9773;47.062;15.446;2022-09-17T13:03:29;3.43;;;1.10;;
19278;SDS011;9773;47.062;15.446;2022-09-17T13:14:22;1.27;;;1.27;;
19278;SDS011;9773;47.062;15.446;2022-09-17T13:20:24;1.67;;;1.03;;
19278;SDS011;9773;47.062;15.446;2022-09-17T13:22:52;2.97;;;1.20;;
19278;SDS011;9773;47.062;15.446;2022-09-17T13:25:21;1.40;;;1.30;;
19278;SDS011;9773;47.062;15.446;2022-09-17T13:27:48;1.80;;;1.17;;
19278;SDS011;9773;47.062;15.446;2022-09-17T13:30:18;2.47;;;1.20;;
19278;SDS011;9773;47.062;15.446;2022-09-17T13:32:48;1.30;;;1.30;;
19278;SDS011;9773;47.062;15.446;2022-09-17T13:37:56;1.30;;;1.20;;
19278;SDS011;9773;47.062;15.446;2022-09-17T13:40:30;1.30;;;1.30;;
19278;SDS011;9773;47.062;15.446;2022-09-17T13:45:32;0.93;;;0.90;;
19278;SDS011;9773;47.062;15.446;2022-09-17T13:48:19;1.37;;;1.20;;
19278;SDS011;9773;47.062;15.446;2022-09-17T13:50:50;1.00;;;1.00;;
19278;SDS011;9773;47.062;15.446;2022-09-17T13:53:18;1.03;;;1.03;;
19278;SDS011;9773;47.062;15.446;2022-09-17T13:55:57;1.07;;;1.07;;
19278;SDS011;9773;47.062;15.446;2022-09-17T13:58:34;1.17;;;1.00;;
19278;SDS011;9773;47.062;15.446;2022-09-17T14:01:10;1.87;;;1.20;;
19278;SDS011;9773;47.062;15.446;2022-09-17T14:16:44;1.27;;;1.17;;
19278;SDS011;9773;47.062;15.446;2022-09-17T14:27:09;0.80;;;0.80;;
19278;SDS011;9773;47.062;15.446;2022-09-17T14:35:36;1.07;;;0.83;;
19278;SDS011;9773;47.062;15.446;2022-09-17T14:40:45;1.10;;;1.10;;
19278;SDS011;9773;47.062;15.446;2022-09-17T14:43:20;1.50;;;1.40;;
19278;SDS011;9773;47.062;15.446;2022-09-17T14:45:59;1.60;;;1.07;;
19278;SDS011;9773;47.062;15.446;2022-09-17T14:48:28;1.47;;;1.37;;
19278;SDS011;9773;47.062;15.446;2022-09-17T14:53:46;1.50;;;1.40;;
19278;SDS011;9773;47.062;15.446;2022-09-17T14:56:15;1.43;;;0.97;;
19278;SDS011;9773;47.062;15.446;2022-09-17T14:58:47;1.20;;;1.10;;
19278;SDS011;9773;47.062;15.446;2022-09-17T15:01:25;1.17;;;1.10;;
19278;SDS011;9773;47.062;15.446;2022-09-17T15:06:37;1.97;;;1.20;;
19278;SDS011;9773;47.062;15.446;2022-09-17T15:09:03;1.20;;;1.10;;
19278;SDS011;9773;47.062;15.446;2022-09-17T15:11:30;0.97;;;0.97;;
19278;SDS011;9773;47.062;15.446;2022-09-17T15:14:02;1.00;;;1.00;;
19278;SDS011;9773;47.062;15.446;2022-09-17T15:16:31;0.97;;;0.93;;
19278;SDS011;9773;47.062;15.446;2022-09-17T15:18:59;1.43;;;1.17;;
19278;SDS011;9773;47.062;15.446;2022-09-17T15:21:34;1.77;;;1.20;;
19278;SDS011;9773;47.062;15.446;2022-09-17T15:26:58;1.50;;;1.40;;
19278;SDS011;9773;47.062;15.446;2022-09-17T15:29:35;1.50;;;1.40;;
19278;SDS011;9773;47.062;15.446;2022-09-17T15:32:04;1.30;;;1.30;;
19278;SDS011;9773;47.062;15.446;2022-09-17T15:34:30;1.23;;;1.23;;
19278;SDS011;9773;47.062;15.446;2022-09-17T15:37:03;1.60;;;1.50;;
19278;SDS011;9773;47.062;15.446;2022-09-17T15:39:30;1.70;;;1.17;;
19278;SDS011;9773;47.062;15.446;2022-09-17T15:42:03;1.70;;;1.60;;
19278;SDS011;9773;47.062;15.446;2022-09-17T15:44:29;1.63;;;1.53;;
19278;SDS011;9773;47.062;15.446;2022-09-17T15:47:17;1.50;;;1.40;;
19278;SDS011;9773;47.062;15.446;2022-09-17T15:50:32;1.60;;;1.60;;
19278;SDS011;9773;47.062;15.446;2022-09-17T15:58:27;1.73;;;1.70;;
19278;SDS011;9773;47.062;15.446;2022-09-17T16:01:08;2.17;;;1.80;;
19278;SDS011;9773;47.062;15.446;2022-09-17T16:08:46;2.43;;;2.27;;
19278;SDS011;9773;47.062;15.446;2022-09-17T16:11:29;3.80;;;2.40;;
19278;SDS011;9773;47.062;15.446;2022-09-17T16:13:56;3.87;;;2.10;;
19278;SDS011;9773;47.062;15.446;2022-09-17T16:16:29;2.73;;;2.40;;
19278;SDS011;9773;47.062;15.446;2022-09-17T16:18:58;2.57;;;2.47;;
19278;SDS011;9773;47.062;15.446;2022-09-17T16:21:24;2.70;;;2.50;;
19278;SDS011;9773;47.062;15.446;2022-09-17T16:23:49;2.50;;;2.30;;
19278;SDS011;9773;47.062;15.446;2022-09-17T16:26:18;2.50;;;2.20;;
19278;SDS011;9773;47.062;15.446;2022-09-17T16:28:53;3.53;;;2.20;;
19278;SDS011;9773;47.062;15.446;2022-09-17T16:31:26;2.40;;;2.30;;
19278;SDS011;9773;47.062;15.446;2022-09-17T16:33:52;2.30;;;2.20;;
19278;SDS011;9773;47.062;15.446;2022-09-17T16:36:19;3.80;;;2.00;;
19278;SDS011;9773;47.062;15.446;2022-09-17T16:38:45;2.03;;;1.90;;
19278;SDS011;9773;47.062;15.446;2022-09-17T16:41:10;2.30;;;2.20;;
19278;SDS011;9773;47.062;15.446;2022-09-17T16:43:37;2.57;;;2.00;;
19278;SDS011;9773;47.062;15.446;2022-09-17T16:46:05;2.00;;;1.80;;
19278;SDS011;9773;47.062;15.446;2022-09-17T16:48:32;1.87;;;1.77;;
19278;SDS011;9773;47.062;15.446;2022-09-17T16:50:58;2.00;;;1.90;;
19278;SDS011;9773;47.062;15.446;2022-09-17T16:53:25;1.67;;;1.60;;
19278;SDS011;9773;47.062;15.446;2022-09-17T16:55:51;3.00;;;1.77;;
19278;SDS011;9773;47.062;15.446;2022-09-17T16:58:17;1.60;;;1.20;;
19278;SDS011;9773;47.062;15.446;2022-09-17T17:00:43;1.20;;;1.20;;
19278;SDS011;9773;47.062;15.446;2022-09-17T17:03:12;2.57;;;1.60;;
19278;SDS011;9773;47.062;15.446;2022-09-17T17:05:40;0.50;;;0.50;;
19278;SDS011;9773;47.062;15.446;2022-09-17T17:08:07;0.70;;;0.70;;
19278;SDS011;9773;47.062;15.446;2022-09-17T17:10:34;0.80;;;0.80;;
19278;SDS011;9773;47.062;15.446;2022-09-17T17:13:02;1.10;;;1.10;;
19278;SDS011;9773;47.062;15.446;2022-09-17T17:15:28;1.47;;;1.40;;
19278;SDS011;9773;47.062;15.446;2022-09-17T17:17:54;0.80;;;0.80;;
19278;SDS011;9773;47.062;15.446;2022-09-17T17:20:21;2.00;;;0.93;;
19278;SDS011;9773;47.062;15.446;2022-09-17T17:22:47;0.90;;;0.90;;
19278;SDS011;9773;47.062;15.446;2022-09-17T17:25:15;0.47;;;0.47;;
19278;SDS011;9773;47.062;15.446;2022-09-17T17:27:41;0.90;;;0.90;;
19278;SDS011;9773;47.062;15.446;2022-09-17T17:30:08;1.00;;;1.00;;
19278;SDS011;9773;47.062;15.446;2022-09-17T17:32:40;1.10;;;1.10;;
19278;SDS011;9773;47.062;15.446;2022-09-17T17:35:07;1.10;;;1.10;;
19278;SDS011;9773;47.062;15.446;2022-09-17T17:37:33;0.80;;;0.80;;
19278;SDS011;9773;47.062;15.446;2022-09-17T17:39:59;2.77;;;0.90;;
19278;SDS011;9773;47.062;15.446;2022-09-17T17:42:25;1.10;;;1.10;;
19278;SDS011;9773;47.062;15.446;2022-09-17T17:44:52;1.30;;;1.30;;
19278;SDS011;9773;47.062;15.446;2022-09-17T17:47:19;2.37;;;1.00;;
19278;SDS011;9773;47.062;15.446;2022-09-17T17:49:45;1.10;;;1.10;;
19278;SDS011;9773;47.062;15.446;2022-09-17T17:52:12;1.07;;;1.07;;
19278;SDS011;9773;47.062;15.446;2022-09-17T17:54:38;0.83;;;0.83;;
19278;SDS011;9773;47.062;15.446;2022-09-17T17:57:03;1.20;;;1.20;;
19278;SDS011;9773;47.062;15.446;2022-09-17T17:59:29;1.00;;;1.00;;
19278;SDS011;9773;47.062;15.446;2022-09-17T18:01:55;1.20;;;1.20;;
19278;SDS011;9773;47.062;15.446;2022-09-17T18:04:21;1.23;;;1.23;;
19278;SDS011;9773;47.062;15.446;2022-09-17T18:06:46;1.17;;;1.17;;
19278;SDS011;9773;47.062;15.446;2022-09-17T18:09:13;1.00;;;1.00;;
19278;SDS011;9773;47.062;15.446;2022-09-17T18:11:39;2.27;;;1.00;;
19278;SDS011;9773;47.062;15.446;2022-09-17T18:14:04;1.37;;;1.30;;
19278;SDS011;9773;47.062;15.446;2022-09-17T18:16:30;2.03;;;1.13;;
19278;SDS011;9773;47.062;15.446;2022-09-17T18:18:56;1.20;;;1.20;;